Worland Municipal Airport
KWRL : now visible

Airfield :











YOU CAN JOIN US ON...

 
LOGIN :

Register | Disclaimer

   EN    FR    IT 

 









Legend :    VFR   Marginal VFR   IFR   Intensive IFR   Very Intensive IFR
Visi :
Ceiling :
>= 8 km
>= 3000ft
5 to 8 km
1000 to 3000 ft
1500m to 5 km
500 to 1000 ft
800 to 1500m
200 to 500 ft
< 800m
< 200 ft
Symbols :   Thunderstorms  Fog  Heavy snow  Heavy precipitations  Wind > 20 kt






- Airport Elevation : 4227 ft
- IATA code : WRL


KWRL - Worland Municipal

CURRENT METAR :
  • 050653Z AUTO 00000KT 10SM CLR 14/04 A2994 RMK AO2 SLP100 T01390039 403060111

EXPIRED METARs :
  • 050553Z AUTO 20006KT 10SM CLR 15/04 A2994 RMK AO2 SLP098 T01500044 10278 20144 51020
  • 050453Z AUTO 18003KT 10SM CLR 14/04 A2992 RMK AO2 SLP096 T01440044

TAF KWRL
Valid from the 05 at 06:00 until the 06 at 06:00 UTC


050522Z 0506/0606 VRB06KT P6SM SCT120
FM051700 20009KT P6SM SCT120
FM060100 17008KT P6SM OVC120
KZLC FIR / North America



MET'MAP, your aeronautical weather chart ! - Copyright ORBIFLY December 2007 - Disclaimer

ORBIFLY MET'MAP TEAM :

Programming & Development : Alexandra Zaïnal
Concept & original design : Baudouin d'Aumeries
Assistance for programming : Marc-Olivier Méhu
Technical & hardware support : Manuel Goepfert

Contact : metmap@orbifly.com




SOURCES & CREDITS :

   NOAA       Earth
Advisory